Time,TemperatureF,DewpointF,PressureIn,WindDirection,WindDirectionDegrees,WindSpeedMPH,WindSpeedGustMPH,Humidity,HourlyPrecipIn,Conditions,Clouds,dailyrainin,SoftwareType,DateUTC
2013-02-04 00:02:00,26.8,24.5,29.84,WNW,283,3.0,3.0,91,0.00,,---,0.00,VWS V14.00,2013-02-04 05:02:00,
2013-02-04 00:03:00,26.9,24.6,29.84,WNW,283,3.0,3.0,91,0.00,,---,0.00,VWS V14.00,2013-02-04 05:03:00,
2013-02-04 00:04:00,26.9,24.6,29.84,WNW,283,2.0,2.0,91,0.00,,---,0.00,VWS V14.00,2013-02-04 05:04:00,
2013-02-04 00:07:00,26.9,24.6,29.84,West,274,2.0,3.0,91,0.00,,---,0.00,VWS V14.00,2013-02-04 05:07:00,
2013-02-04 00:12:00,26.9,24.6,29.85,West,274,2.0,3.0,91,0.00,,---,0.00,VWS V14.00,2013-02-04 05:12:00,
2013-02-04 00:17:00,27.0,24.5,29.85,West,271,2.0,2.0,90,0.00,,---,0.00,VWS V14.00,2013-02-04 05:17:00,
2013-02-04 00:22:00,27.1,24.6,29.85,West,280,1.0,2.0,90,0.00,,---,0.00,VWS V14.00,2013-02-04 05:22:00,
2013-02-04 00:27:00,27.1,24.6,29.85,West,281,2.0,2.0,90,0.00,,---,0.00,VWS V14.00,2013-02-04 05:27:00,
2013-02-04 00:32:00,27.1,24.6,29.85,West,281,0.0,0.0,90,0.00,,---,0.00,VWS V14.00,2013-02-04 05:32:00,
2013-02-04 00:37:00,27.1,24.6,29.85,West,280,3.0,3.0,90,0.00,,---,0.00,VWS V14.00,2013-02-04 05:37:00,
2013-02-04 00:42:00,27.1,24.6,29.85,West,280,0.0,2.0,90,0.00,,---,0.00,VWS V14.00,2013-02-04 05:42:00,
2013-02-04 00:47:00,27.1,24.6,29.85,West,272,3.0,5.0,90,0.00,,---,0.00,VWS V14.00,2013-02-04 05:47:00,
2013-02-04 00:52:00,27.2,24.4,29.85,WNW,284,4.0,5.0,89,0.00,,---,0.00,VWS V14.00,2013-02-04 05:52:00,
2013-02-04 00:57:00,27.3,24.2,29.85,West,277,3.0,4.0,88,0.00,,---,0.00,VWS V14.00,2013-02-04 05:57:00,
2013-02-04 01:02:00,27.3,24.0,29.85,WNW,291,3.0,4.0,87,0.00,,---,0.00,VWS V14.00,2013-02-04 06:02:00,
2013-02-04 01:07:00,27.3,24.0,29.85,WNW,289,2.0,5.0,87,0.00,,---,0.00,VWS V14.00,2013-02-04 06:07:00,
2013-02-04 01:13:00,27.4,23.8,29.85,WNW,286,5.0,5.0,86,0.00,,---,0.00,VWS V14.00,2013-02-04 06:13:00,
2013-02-04 01:18:00,27.4,23.5,29.85,WNW,288,5.0,5.0,85,0.00,,---,0.00,VWS V14.00,2013-02-04 06:18:00,
2013-02-04 01:23:00,27.4,23.2,29.85,WNW,285,3.0,5.0,84,0.00,,---,0.00,VWS V14.00,2013-02-04 06:23:00,
2013-02-04 01:28:00,27.5,22.5,29.86,WNW,293,5.0,6.0,81,0.00,,---,0.00,VWS V14.00,2013-02-04 06:28:00,
2013-02-04 01:33:00,27.4,21.5,29.86,WNW,283,2.0,4.0,78,0.00,,---,0.00,VWS V14.00,2013-02-04 06:33:00,
2013-02-04 01:38:00,27.2,21.0,29.86,WNW,282,4.0,5.0,77,0.00,,---,0.00,VWS V14.00,2013-02-04 06:38:00,
2013-02-04 01:43:00,27.1,20.2,29.86,WNW,296,4.0,6.0,75,0.00,,---,0.00,VWS V14.00,2013-02-04 06:43:00,
2013-02-04 01:48:00,27.0,19.2,29.87,WNW,288,5.0,5.0,72,0.00,,---,0.00,VWS V14.00,2013-02-04 06:48:00,
2013-02-04 01:53:00,26.9,18.8,29.87,WNW,286,5.0,5.0,71,0.00,,---,0.00,VWS V14.00,2013-02-04 06:53:00,
2013-02-04 01:58:00,26.8,18.3,29.87,WNW,284,6.0,6.0,70,0.00,,---,0.00,VWS V14.00,2013-02-04 06:58:00,
2013-02-04 02:03:00,26.8,18.3,29.87,West,281,3.0,3.0,70,0.00,,---,0.00,VWS V14.00,2013-02-04 07:03:00,
2013-02-04 02:08:00,26.6,18.5,29.87,West,277,6.0,8.0,71,0.00,,---,0.00,VWS V14.00,2013-02-04 07:08:00,
2013-02-04 02:13:00,26.5,18.4,29.87,WNW,285,3.0,3.0,71,0.00,,---,0.00,VWS V14.00,2013-02-04 07:13:00,
2013-02-04 02:18:00,26.3,18.5,29.87,West,276,6.0,9.0,72,0.00,,---,0.00,VWS V14.00,2013-02-04 07:18:00,
2013-02-04 02:23:00,26.4,18.3,29.88,WNW,296,6.0,7.0,71,0.00,,---,0.00,VWS V14.00,2013-02-04 07:23:00,
2013-02-04 02:29:00,26.2,18.1,29.88,WNW,300,2.0,3.0,71,0.00,,---,0.00,VWS V14.00,2013-02-04 07:29:00,
2013-02-04 02:34:00,26.0,17.9,29.88,WNW,288,4.0,6.0,71,0.00,,---,0.00,VWS V14.00,2013-02-04 07:34:00,
2013-02-04 02:39:00,25.9,17.8,29.88,WNW,282,2.0,2.0,71,0.00,,---,0.00,VWS V14.00,2013-02-04 07:39:00,
2013-02-04 02:44:00,25.8,17.4,29.88,West,277,4.0,5.0,70,0.00,,---,0.00,VWS V14.00,2013-02-04 07:44:00,
2013-02-04 02:49:00,25.7,17.3,29.88,WNW,288,5.0,5.0,70,0.00,,---,0.00,VWS V14.00,2013-02-04 07:49:00,
2013-02-04 02:54:00,25.5,17.1,29.88,WNW,290,4.0,5.0,70,0.00,,---,0.00,VWS V14.00,2013-02-04 07:54:00,
2013-02-04 02:59:00,25.5,16.8,29.88,WNW,288,6.0,6.0,69,0.00,,---,0.00,VWS V14.00,2013-02-04 07:59:00,
2013-02-04 03:04:00,25.3,16.6,29.88,West,273,4.0,5.0,69,0.00,,---,0.00,VWS V14.00,2013-02-04 08:04:00,
2013-02-04 03:09:00,25.3,16.2,29.89,WNW,292,4.0,5.0,68,0.00,,---,0.00,VWS V14.00,2013-02-04 08:09:00,
2013-02-04 03:14:00,25.1,15.7,29.89,West,276,3.0,4.0,67,0.00,,---,0.00,VWS V14.00,2013-02-04 08:14:00,
2013-02-04 03:19:00,25.1,15.7,29.89,West,278,4.0,7.0,67,0.00,,---,0.00,VWS V14.00,2013-02-04 08:19:00,
2013-02-04 03:24:00,25.0,15.3,29.89,WNW,295,3.0,4.0,66,0.00,,---,0.00,VWS V14.00,2013-02-04 08:24:00,
2013-02-04 03:29:00,24.8,15.1,29.89,West,279,3.0,4.0,66,0.00,,---,0.00,VWS V14.00,2013-02-04 08:29:00,
2013-02-04 03:34:00,24.7,15.0,29.89,WNW,292,6.0,11.0,66,0.00,,---,0.00,VWS V14.00,2013-02-04 08:34:00,
2013-02-04 03:39:00,24.6,14.9,29.89,WNW,283,4.0,5.0,66,0.00,,---,0.00,VWS V14.00,2013-02-04 08:39:00,
2013-02-04 03:45:00,24.5,14.4,29.90,WNW,296,3.0,5.0,65,0.00,,---,0.00,VWS V14.00,2013-02-04 08:45:00,
2013-02-04 03:50:00,24.4,14.3,29.90,WNW,290,4.0,7.0,65,0.00,,---,0.00,VWS V14.00,2013-02-04 08:50:00,
2013-02-04 03:55:00,24.3,14.2,29.90,West,278,7.0,7.0,65,0.00,,---,0.00,VWS V14.00,2013-02-04 08:55:00,
2013-02-04 04:00:00,24.3,13.9,29.90,West,259,6.0,6.0,64,0.00,,---,0.00,VWS V14.00,2013-02-04 09:00:00,
2013-02-04 04:05:00,24.3,13.9,29.91,WNW,291,4.0,5.0,64,0.00,,---,0.00,VWS V14.00,2013-02-04 09:05:00,
2013-02-04 04:10:00,24.1,13.7,29.91,NNW,331,5.0,7.0,64,0.00,,---,0.00,VWS V14.00,2013-02-04 09:10:00,
2013-02-04 04:15:00,24.0,13.6,29.91,WNW,284,6.0,7.0,64,0.00,,---,0.00,VWS V14.00,2013-02-04 09:15:00,
2013-02-04 04:20:00,23.9,13.5,29.91,WNW,292,5.0,7.0,64,0.00,,---,0.00,VWS V14.00,2013-02-04 09:20:00,
2013-02-04 04:25:00,23.9,13.1,29.92,NW,305,4.0,5.0,63,0.00,,---,0.00,VWS V14.00,2013-02-04 09:25:00,
2013-02-04 04:30:00,23.8,13.1,29.92,WNW,284,5.0,10.0,63,0.00,,---,0.00,VWS V14.00,2013-02-04 09:30:00,
2013-02-04 04:35:00,23.7,13.3,29.92,West,281,6.0,6.0,64,0.00,,---,0.00,VWS V14.00,2013-02-04 09:35:00,
2013-02-04 04:40:00,23.7,13.0,29.92,NW,321,4.0,7.0,63,0.00,,---,0.00,VWS V14.00,2013-02-04 09:40:00,
2013-02-04 04:45:00,23.6,12.9,29.93,WNW,292,2.0,4.0,63,0.00,,---,0.00,VWS V14.00,2013-02-04 09:45:00,
2013-02-04 04:50:00,23.6,12.9,29.93,NW,322,3.0,6.0,63,0.00,,---,0.00,VWS V14.00,2013-02-04 09:50:00,
2013-02-04 04:55:00,23.4,12.7,29.93,NW,308,2.0,3.0,63,0.00,,---,0.00,VWS V14.00,2013-02-04 09:55:00,
2013-02-04 05:00:00,23.4,12.7,29.93,WNW,287,5.0,5.0,63,0.00,,---,0.00,VWS V14.00,2013-02-04 10:00:00,
2013-02-04 05:06:00,23.3,12.6,29.93,WNW,302,2.0,3.0,63,0.00,,---,0.00,VWS V14.00,2013-02-04 10:06:00,
2013-02-04 05:11:00,23.2,12.8,29.93,West,273,4.0,5.0,64,0.00,,---,0.00,VWS V14.00,2013-02-04 10:11:00,
2013-02-04 05:16:00,23.1,12.8,29.94,WNW,290,3.0,3.0,64,0.00,,---,0.00,VWS V14.00,2013-02-04 10:16:00,
2013-02-04 05:21:00,22.9,12.6,29.94,West,280,2.0,2.0,64,0.00,,---,0.00,VWS V14.00,2013-02-04 10:21:00,
2013-02-04 05:26:00,22.9,12.6,29.94,WNW,282,3.0,5.0,64,0.00,,---,0.00,VWS V14.00,2013-02-04 10:26:00,
2013-02-04 05:31:00,22.9,12.6,29.95,West,281,1.0,3.0,64,0.00,,---,0.00,VWS V14.00,2013-02-04 10:31:00,
2013-02-04 05:36:00,22.8,12.8,29.95,WNW,300,5.0,7.0,65,0.00,,---,0.00,VWS V14.00,2013-02-04 10:36:00,
2013-02-04 05:41:00,22.8,12.8,29.95,WNW,289,3.0,4.0,65,0.00,,---,0.00,VWS V14.00,2013-02-04 10:41:00,
2013-02-04 05:46:00,22.7,12.7,29.96,WNW,289,5.0,5.0,65,0.00,,---,0.00,VWS V14.00,2013-02-04 10:46:00,
2013-02-04 05:51:00,22.7,12.7,29.96,West,279,3.0,3.0,65,0.00,,---,0.00,VWS V14.00,2013-02-04 10:51:00,
2013-02-04 05:56:00,22.7,12.7,29.96,West,281,2.0,4.0,65,0.00,,---,0.00,VWS V14.00,2013-02-04 10:56:00,
2013-02-04 06:01:00,22.6,12.6,29.96,WNW,296,2.0,3.0,65,0.00,,---,0.00,VWS V14.00,2013-02-04 11:01:00,
2013-02-04 06:06:00,22.6,12.3,29.97,NNW,327,4.0,4.0,64,0.00,,---,0.00,VWS V14.00,2013-02-04 11:06:00,
2013-02-04 06:11:00,22.7,12.4,29.97,WNW,283,2.0,2.0,64,0.00,,---,0.00,VWS V14.00,2013-02-04 11:11:00,
2013-02-04 06:16:00,22.6,12.6,29.96,NW,320,3.0,3.0,65,0.00,,---,0.00,VWS V14.00,2013-02-04 11:16:00,
2013-02-04 06:22:00,22.6,12.3,29.97,NW,306,2.0,2.0,64,0.00,,---,0.00,VWS V14.00,2013-02-04 11:22:00,
2013-02-04 06:27:00,22.6,12.3,29.97,WNW,285,0.0,1.0,64,0.00,,---,0.00,VWS V14.00,2013-02-04 11:27:00,
2013-02-04 06:32:00,22.6,12.3,29.97,WNW,289,3.0,3.0,64,0.00,,---,0.00,VWS V14.00,2013-02-04 11:32:00,
2013-02-04 06:37:00,22.6,12.6,29.98,NW,308,2.0,4.0,65,0.00,,---,0.00,VWS V14.00,2013-02-04 11:37:00,
2013-02-04 06:42:00,22.6,12.3,29.97,WNW,286,1.0,3.0,64,0.00,,---,0.00,VWS V14.00,2013-02-04 11:42:00,
2013-02-04 06:47:00,22.6,12.6,29.97,NW,304,3.0,3.0,65,0.00,,---,0.00,VWS V14.00,2013-02-04 11:47:00,
2013-02-04 06:52:00,22.5,12.5,29.98,WNW,296,3.0,4.0,65,0.00,,---,0.00,VWS V14.00,2013-02-04 11:52:00,
2013-02-04 06:57:00,22.5,12.5,29.98,WNW,288,2.0,2.0,65,0.00,,---,0.00,VWS V14.00,2013-02-04 11:57:00,
2013-02-04 07:02:00,22.5,12.5,29.97,WNW,288,0.0,2.0,65,0.00,,---,0.00,VWS V14.00,2013-02-04 12:02:00,
2013-02-04 07:07:00,22.5,12.5,29.97,NW,321,0.0,1.0,65,0.00,,---,0.00,VWS V14.00,2013-02-04 12:07:00,
2013-02-04 07:12:00,22.3,12.7,29.98,WNW,295,2.0,2.0,66,0.00,,---,0.00,VWS V14.00,2013-02-04 12:12:00,
2013-02-04 07:17:00,22.3,12.7,29.98,WNW,294,1.0,2.0,66,0.00,,---,0.00,VWS V14.00,2013-02-04 12:17:00,
2013-02-04 07:22:00,22.2,12.9,29.99,WNW,286,0.0,2.0,67,0.00,,---,0.00,VWS V14.00,2013-02-04 12:22:00,
2013-02-04 07:28:00,22.3,13.0,29.99,West,281,2.0,3.0,67,0.00,,---,0.00,VWS V14.00,2013-02-04 12:28:00,
2013-02-04 07:33:00,22.3,13.0,29.99,West,281,2.0,3.0,67,0.00,,---,0.00,VWS V14.00,2013-02-04 12:33:00,
2013-02-04 07:38:00,22.3,13.0,29.99,West,279,4.0,4.0,67,0.00,,---,0.00,VWS V14.00,2013-02-04 12:38:00,
2013-02-04 07:43:00,22.4,13.1,30.00,West,279,1.0,1.0,67,0.00,,---,0.00,VWS V14.00,2013-02-04 12:43:00,
2013-02-04 07:48:00,22.5,13.2,29.99,West,279,1.0,3.0,67,0.00,,---,0.00,VWS V14.00,2013-02-04 12:48:00,
2013-02-04 07:53:00,22.6,13.3,30.00,WNW,289,2.0,3.0,67,0.00,,---,0.00,VWS V14.00,2013-02-04 12:53:00,
2013-02-04 07:58:00,22.7,13.4,30.00,West,276,3.0,3.0,67,0.00,,---,0.00,VWS V14.00,2013-02-04 12:58:00,
2013-02-04 08:03:00,22.8,13.5,30.00,West,276,2.0,2.0,67,0.00,,---,0.00,VWS V14.00,2013-02-04 13:03:00,
2013-02-04 08:08:00,23.0,13.7,30.00,West,276,3.0,3.0,67,0.00,,---,0.00,VWS V14.00,2013-02-04 13:08:00,
2013-02-04 08:13:00,23.0,13.7,30.00,West,279,4.0,4.0,67,0.00,,---,0.00,VWS V14.00,2013-02-04 13:13:00,
2013-02-04 08:19:00,23.2,13.5,30.00,West,281,6.0,6.0,66,0.00,,---,0.00,VWS V14.00,2013-02-04 13:19:00,
2013-02-04 08:24:00,23.3,14.0,30.01,West,277,2.0,4.0,67,0.00,,---,0.00,VWS V14.00,2013-02-04 13:24:00,
2013-02-04 08:29:00,23.5,13.8,30.01,WNW,283,4.0,4.0,66,0.00,,---,0.00,VWS V14.00,2013-02-04 13:29:00,
2013-02-04 08:34:00,23.7,13.7,30.01,West,274,4.0,6.0,65,0.00,,---,0.00,VWS V14.00,2013-02-04 13:34:00,
2013-02-04 08:39:00,23.9,13.9,30.01,West,273,2.0,3.0,65,0.00,,---,0.00,VWS V14.00,2013-02-04 13:39:00,
2013-02-04 08:44:00,24.1,14.1,30.01,WNW,288,6.0,7.0,65,0.00,,---,0.00,VWS V14.00,2013-02-04 13:44:00,
2013-02-04 08:49:00,24.2,13.8,30.02,West,273,4.0,4.0,64,0.00,,---,0.00,VWS V14.00,2013-02-04 13:49:00,
2013-02-04 08:54:00,24.4,14.0,30.01,WNW,282,3.0,4.0,64,0.00,,---,0.00,VWS V14.00,2013-02-04 13:54:00,
2013-02-04 08:59:00,24.6,14.2,30.02,WNW,289,3.0,4.0,64,0.00,,---,0.00,VWS V14.00,2013-02-04 13:59:00,
2013-02-04 09:04:00,24.9,14.1,30.02,WNW,290,4.0,7.0,63,0.00,,---,0.00,VWS V14.00,2013-02-04 14:04:00,
2013-02-04 09:09:00,25.1,14.3,30.02,West,275,3.0,3.0,63,0.00,,---,0.00,VWS V14.00,2013-02-04 14:09:00,
2013-02-04 09:14:00,25.2,14.4,30.02,WNW,300,3.0,5.0,63,0.00,,---,0.00,VWS V14.00,2013-02-04 14:14:00,
2013-02-04 09:19:00,25.3,14.5,30.02,West,275,4.0,5.0,63,0.00,,---,0.00,VWS V14.00,2013-02-04 14:19:00,
2013-02-04 09:24:00,25.5,14.7,30.02,WNW,292,6.0,8.0,63,0.00,,---,0.00,VWS V14.00,2013-02-04 14:24:00,
2013-02-04 09:29:00,25.6,14.4,30.02,West,277,2.0,3.0,62,0.00,,---,0.00,VWS V14.00,2013-02-04 14:29:00,
2013-02-04 09:34:00,25.9,14.7,30.02,WNW,292,5.0,5.0,62,0.00,,---,0.00,VWS V14.00,2013-02-04 14:34:00,
2013-02-04 09:40:00,26.1,14.5,30.02,West,280,3.0,6.0,61,0.00,,---,0.00,VWS V14.00,2013-02-04 14:40:00,
2013-02-04 09:45:00,26.1,14.1,30.02,WNW,286,6.0,6.0,60,0.00,,---,0.00,VWS V14.00,2013-02-04 14:45:00,
2013-02-04 09:50:00,26.3,14.3,30.02,WNW,283,2.0,3.0,60,0.00,,---,0.00,VWS V14.00,2013-02-04 14:50:00,
2013-02-04 09:55:00,26.5,14.1,30.02,WNW,289,5.0,7.0,59,0.00,,---,0.00,VWS V14.00,2013-02-04 14:55:00,
2013-02-04 10:00:00,26.4,13.6,30.02,WNW,296,6.0,8.0,58,0.00,,---,0.00,VWS V14.00,2013-02-04 15:00:00,
2013-02-04 10:05:00,26.5,13.7,30.02,WNW,284,5.0,6.0,58,0.00,,---,0.00,VWS V14.00,2013-02-04 15:05:00,
2013-02-04 10:10:00,26.6,14.2,30.02,West,280,4.0,6.0,59,0.00,,---,0.00,VWS V14.00,2013-02-04 15:10:00,
2013-02-04 10:15:00,26.8,14.0,30.01,WNW,284,7.0,7.0,58,0.00,,---,0.00,VWS V14.00,2013-02-04 15:15:00,
2013-02-04 10:20:00,27.0,14.2,30.01,WNW,288,5.0,5.0,58,0.00,,---,0.00,VWS V14.00,2013-02-04 15:20:00,
2013-02-04 10:25:00,27.2,14.0,30.01,West,280,5.0,6.0,57,0.00,,---,0.00,VWS V14.00,2013-02-04 15:25:00,
2013-02-04 10:30:00,27.2,14.0,30.01,West,281,4.0,5.0,57,0.00,,---,0.00,VWS V14.00,2013-02-04 15:30:00,
2013-02-04 10:35:00,27.3,13.7,30.01,West,281,4.0,4.0,56,0.00,,---,0.00,VWS V14.00,2013-02-04 15:35:00,
2013-02-04 10:40:00,27.4,14.2,30.02,West,278,5.0,6.0,57,0.00,,---,0.00,VWS V14.00,2013-02-04 15:40:00,
2013-02-04 10:45:00,27.4,13.8,30.02,WNW,292,8.0,8.0,56,0.00,,---,0.00,VWS V14.00,2013-02-04 15:45:00,
2013-02-04 10:50:00,27.5,13.9,30.01,WNW,284,4.0,4.0,56,0.00,,---,0.00,VWS V14.00,2013-02-04 15:50:00,
2013-02-04 10:55:00,27.9,14.2,30.01,WNW,287,6.0,6.0,56,0.00,,---,0.00,VWS V14.00,2013-02-04 15:55:00,
2013-02-04 11:00:00,27.9,13.8,30.01,WNW,284,4.0,6.0,55,0.00,,---,0.00,VWS V14.00,2013-02-04 16:00:00,
2013-02-04 11:05:00,27.8,13.3,30.01,NW,307,6.0,7.0,54,0.00,,---,0.00,VWS V14.00,2013-02-04 16:05:00,
2013-02-04 11:11:00,27.6,13.1,30.01,WNW,289,7.0,8.0,54,0.00,,---,0.00,VWS V14.00,2013-02-04 16:11:00,
2013-02-04 11:16:00,27.6,13.1,30.01,West,274,5.0,7.0,54,0.00,,---,0.00,VWS V14.00,2013-02-04 16:16:00,
2013-02-04 11:21:00,27.9,13.4,30.00,West,275,6.0,8.0,54,0.00,,---,0.00,VWS V14.00,2013-02-04 16:21:00,
2013-02-04 11:26:00,27.8,12.9,30.00,West,279,5.0,5.0,53,0.00,,---,0.00,VWS V14.00,2013-02-04 16:26:00,
2013-02-04 11:31:00,27.7,12.8,30.00,West,261,5.0,6.0,53,0.00,,---,0.00,VWS V14.00,2013-02-04 16:31:00,
2013-02-04 11:36:00,27.9,13.4,30.00,West,276,3.0,5.0,54,0.00,,---,0.00,VWS V14.00,2013-02-04 16:36:00,
2013-02-04 11:41:00,28.2,13.3,30.00,West,278,3.0,6.0,53,0.00,,---,0.00,VWS V14.00,2013-02-04 16:41:00,
2013-02-04 11:46:00,27.9,12.6,30.01,WNW,292,9.0,9.0,52,0.00,,---,0.00,VWS V14.00,2013-02-04 16:46:00,
2013-02-04 11:51:00,28.1,12.8,30.00,WNW,287,6.0,7.0,52,0.00,,---,0.00,VWS V14.00,2013-02-04 16:51:00,
2013-02-04 11:56:00,28.5,13.6,30.00,WNW,285,8.0,8.0,53,0.00,,---,0.00,VWS V14.00,2013-02-04 16:56:00,
2013-02-04 12:01:00,28.8,13.4,30.00,West,267,1.0,3.0,52,0.00,,---,0.00,VWS V14.00,2013-02-04 17:01:00,
2013-02-04 12:06:00,29.2,13.8,30.00,WNW,298,3.0,4.0,52,0.00,,---,0.00,VWS V14.00,2013-02-04 17:06:00,
2013-02-04 12:11:00,28.9,12.6,30.00,West,277,7.0,7.0,50,0.00,,---,0.00,VWS V14.00,2013-02-04 17:11:00,
2013-02-04 12:16:00,28.7,12.4,29.99,West,278,7.0,7.0,50,0.00,,---,0.00,VWS V14.00,2013-02-04 17:16:00,
2013-02-04 12:21:00,28.8,12.1,29.99,West,275,4.0,6.0,49,0.00,,---,0.00,VWS V14.00,2013-02-04 17:21:00,
2013-02-04 12:27:00,28.8,12.5,29.98,WNW,284,4.0,4.0,50,0.00,,---,0.00,VWS V14.00,2013-02-04 17:27:00,
2013-02-04 12:32:00,29.0,12.7,29.98,WNW,295,8.0,8.0,50,0.00,,---,0.00,VWS V14.00,2013-02-04 17:32:00,
2013-02-04 12:37:00,29.4,13.1,29.98,WNW,287,3.0,5.0,50,0.00,,---,0.00,VWS V14.00,2013-02-04 17:37:00,
2013-02-04 12:42:00,29.5,12.7,29.98,West,265,5.0,5.0,49,0.00,,---,0.00,VWS V14.00,2013-02-04 17:42:00,
2013-02-04 12:47:00,29.3,12.5,29.98,West,267,6.0,6.0,49,0.00,,---,0.00,VWS V14.00,2013-02-04 17:47:00,
2013-02-04 12:52:00,29.0,12.7,29.97,West,267,6.0,7.0,50,0.00,,---,0.00,VWS V14.00,2013-02-04 17:52:00,
2013-02-04 12:57:00,29.3,13.0,29.97,WNW,285,5.0,5.0,50,0.00,,---,0.00,VWS V14.00,2013-02-04 17:57:00,
2013-02-04 13:02:00,29.2,12.4,29.97,West,280,4.0,6.0,49,0.00,,---,0.00,VWS V14.00,2013-02-04 18:02:00,
2013-02-04 13:07:00,29.6,14.1,29.97,West,267,5.0,5.0,52,0.00,,---,0.00,VWS V14.00,2013-02-04 18:07:00,
2013-02-04 13:13:00,29.3,12.5,29.97,West,263,4.0,5.0,49,0.00,,---,0.00,VWS V14.00,2013-02-04 18:13:00,
2013-02-04 13:18:00,29.0,12.7,29.97,WNW,288,7.0,7.0,50,0.00,,---,0.00,VWS V14.00,2013-02-04 18:18:00,
2013-02-04 13:23:00,29.0,12.7,29.97,WNW,288,4.0,4.0,50,0.00,,---,0.00,VWS V14.00,2013-02-04 18:23:00,
2013-02-04 13:28:00,28.9,12.1,29.97,WNW,290,5.0,5.0,49,0.00,,---,0.00,VWS V14.00,2013-02-04 18:28:00,
2013-02-04 13:33:00,28.9,12.6,29.96,NNW,338,8.0,8.0,50,0.00,,---,0.00,VWS V14.00,2013-02-04 18:33:00,
2013-02-04 13:38:00,28.9,12.6,29.96,West,274,6.0,6.0,50,0.00,,---,0.00,VWS V14.00,2013-02-04 18:38:00,
2013-02-04 13:43:00,29.1,12.8,29.96,WNW,287,2.0,5.0,50,0.00,,---,0.00,VWS V14.00,2013-02-04 18:43:00,
2013-02-04 13:48:00,29.5,13.2,29.97,West,278,5.0,6.0,50,0.00,,---,0.00,VWS V14.00,2013-02-04 18:48:00,
2013-02-04 13:53:00,29.6,12.3,29.96,WNW,288,4.0,6.0,48,0.00,,---,0.00,VWS V14.00,2013-02-04 18:53:00,
2013-02-04 13:58:00,29.4,12.1,29.96,WNW,287,7.0,7.0,48,0.00,,---,0.00,VWS V14.00,2013-02-04 18:58:00,
2013-02-04 14:03:00,29.4,12.6,29.96,WNW,286,5.0,5.0,49,0.00,,---,0.00,VWS V14.00,2013-02-04 19:03:00,
2013-02-04 14:09:00,29.4,12.1,29.96,West,275,4.0,5.0,48,0.00,,---,0.00,VWS V14.00,2013-02-04 19:09:00,
2013-02-04 14:14:00,29.3,11.6,29.96,West,277,3.0,3.0,47,0.00,,---,0.00,VWS V14.00,2013-02-04 19:14:00,
2013-02-04 14:19:00,29.5,12.2,29.96,West,280,4.0,4.0,48,0.00,,---,0.00,VWS V14.00,2013-02-04 19:19:00,
2013-02-04 14:24:00,29.4,12.1,29.96,West,277,0.0,1.0,48,0.00,,---,0.00,VWS V14.00,2013-02-04 19:24:00,
2013-02-04 14:29:00,29.8,13.0,29.95,West,267,4.0,4.0,49,0.00,,---,0.00,VWS V14.00,2013-02-04 19:29:00,
2013-02-04 14:34:00,29.8,12.5,29.95,WNW,290,6.0,7.0,48,0.00,,---,0.00,VWS V14.00,2013-02-04 19:34:00,
2013-02-04 14:39:00,29.9,12.6,29.96,West,279,6.0,6.0,48,0.00,,---,0.00,VWS V14.00,2013-02-04 19:39:00,
2013-02-04 14:44:00,29.9,12.1,29.96,West,267,5.0,6.0,47,0.00,,---,0.00,VWS V14.00,2013-02-04 19:44:00,
2013-02-04 14:49:00,29.8,12.5,29.95,WNW,292,6.0,7.0,48,0.00,,---,0.00,VWS V14.00,2013-02-04 19:49:00,
2013-02-04 14:54:00,29.6,11.9,29.95,West,277,4.0,4.0,47,0.00,,---,0.00,VWS V14.00,2013-02-04 19:54:00,
2013-02-04 15:00:00,29.7,12.4,29.95,West,271,4.0,6.0,48,0.00,,---,0.00,VWS V14.00,2013-02-04 20:00:00,
2013-02-04 15:05:00,29.8,12.5,29.95,WNW,282,3.0,5.0,48,0.00,,---,0.00,VWS V14.00,2013-02-04 20:05:00,
2013-02-04 15:10:00,30.0,12.7,29.95,WNW,290,4.0,5.0,48,0.00,,---,0.00,VWS V14.00,2013-02-04 20:10:00,
2013-02-04 15:15:00,30.0,11.7,29.95,West,279,5.0,6.0,46,0.00,,---,0.00,VWS V14.00,2013-02-04 20:15:00,
2013-02-04 15:20:00,29.9,12.1,29.96,WNW,289,3.0,7.0,47,0.00,,---,0.00,VWS V14.00,2013-02-04 20:20:00,
2013-02-04 15:25:00,29.9,12.1,29.96,WNW,287,8.0,8.0,47,0.00,,---,0.00,VWS V14.00,2013-02-04 20:25:00,
2013-02-04 15:30:00,29.7,11.9,29.96,West,280,4.0,4.0,47,0.00,,---,0.00,VWS V14.00,2013-02-04 20:30:00,
2013-02-04 15:35:00,29.6,12.3,29.96,West,278,7.0,8.0,48,0.00,,---,0.00,VWS V14.00,2013-02-04 20:35:00,
2013-02-04 15:40:00,29.4,12.1,29.96,NNW,332,6.0,9.0,48,0.00,,---,0.00,VWS V14.00,2013-02-04 20:40:00,
2013-02-04 15:45:00,29.3,12.1,29.97,WNW,294,2.0,3.0,48,0.00,,---,0.00,VWS V14.00,2013-02-04 20:45:00,
2013-02-04 15:50:00,29.3,12.1,29.97,West,271,6.0,7.0,48,0.00,,---,0.00,VWS V14.00,2013-02-04 20:50:00,
2013-02-04 15:55:00,29.2,12.0,29.97,West,269,1.0,5.0,48,0.00,,---,0.00,VWS V14.00,2013-02-04 20:55:00,
2013-02-04 16:00:00,29.2,12.4,29.96,WNW,284,3.0,3.0,49,0.00,,---,0.00,VWS V14.00,2013-02-04 21:00:00,
2013-02-04 16:05:00,29.2,12.4,29.96,West,275,4.0,4.0,49,0.00,,---,0.00,VWS V14.00,2013-02-04 21:05:00,
2013-02-04 16:10:00,29.1,12.3,29.96,WNW,285,2.0,3.0,49,0.00,,---,0.00,VWS V14.00,2013-02-04 21:10:00,
2013-02-04 16:16:00,29.1,12.3,29.96,WNW,284,5.0,6.0,49,0.00,,---,0.00,VWS V14.00,2013-02-04 21:16:00,
2013-02-04 16:21:00,29.1,12.3,29.97,West,275,4.0,4.0,49,0.00,,---,0.00,VWS V14.00,2013-02-04 21:21:00,
2013-02-04 16:26:00,29.1,11.9,29.97,West,277,5.0,5.0,48,0.00,,---,0.00,VWS V14.00,2013-02-04 21:26:00,
2013-02-04 16:31:00,29.1,12.3,29.97,WNW,283,2.0,3.0,49,0.00,,---,0.00,VWS V14.00,2013-02-04 21:31:00,
2013-02-04 16:36:00,29.0,12.2,29.97,WNW,287,2.0,4.0,49,0.00,,---,0.00,VWS V14.00,2013-02-04 21:36:00,
2013-02-04 16:41:00,29.0,11.8,29.97,West,277,4.0,4.0,48,0.00,,---,0.00,VWS V14.00,2013-02-04 21:41:00,
2013-02-04 16:46:00,29.0,12.2,29.97,West,276,3.0,4.0,49,0.00,,---,0.00,VWS V14.00,2013-02-04 21:46:00,
2013-02-04 16:51:00,28.9,12.6,29.97,West,279,3.0,5.0,50,0.00,,---,0.00,VWS V14.00,2013-02-04 21:51:00,
2013-02-04 16:56:00,28.9,12.1,29.98,West,275,3.0,3.0,49,0.00,,---,0.00,VWS V14.00,2013-02-04 21:56:00,
2013-02-04 17:01:00,28.8,12.5,29.98,WNW,290,4.0,5.0,50,0.00,,---,0.00,VWS V14.00,2013-02-04 22:01:00,
2013-02-04 17:06:00,28.8,13.0,29.98,WNW,283,2.0,3.0,51,0.00,,---,0.00,VWS V14.00,2013-02-04 22:06:00,
2013-02-04 17:11:00,28.7,12.9,29.98,WNW,282,3.0,3.0,51,0.00,,---,0.00,VWS V14.00,2013-02-04 22:11:00,
2013-02-04 17:17:00,28.6,12.8,29.98,WNW,288,3.0,4.0,51,0.00,,---,0.00,VWS V14.00,2013-02-04 22:17:00,
2013-02-04 17:22:00,28.5,13.1,29.98,WNW,285,1.0,2.0,52,0.00,,---,0.00,VWS V14.00,2013-02-04 22:22:00,
2013-02-04 17:27:00,28.4,13.0,29.98,WNW,285,1.0,2.0,52,0.00,,---,0.00,VWS V14.00,2013-02-04 22:27:00,
2013-02-04 17:32:00,28.3,13.4,29.98,WNW,285,2.0,2.0,53,0.00,,---,0.00,VWS V14.00,2013-02-04 22:32:00,
2013-02-04 17:37:00,28.3,13.4,29.98,WNW,285,1.0,1.0,53,0.00,,---,0.00,VWS V14.00,2013-02-04 22:37:00,
2013-02-04 17:42:00,28.1,13.2,29.98,WNW,285,0.0,0.0,53,0.00,,---,0.00,VWS V14.00,2013-02-04 22:42:00,
2013-02-04 17:47:00,28.1,13.2,29.99,WNW,285,1.0,1.0,53,0.00,,---,0.00,VWS V14.00,2013-02-04 22:47:00,
2013-02-04 17:52:00,28.0,13.5,29.99,WNW,285,3.0,3.0,54,0.00,,---,0.00,VWS V14.00,2013-02-04 22:52:00,
2013-02-04 17:57:00,27.9,13.4,29.99,WNW,285,0.0,0.0,54,0.00,,---,0.00,VWS V14.00,2013-02-04 22:57:00,
2013-02-04 18:02:00,27.9,13.4,29.99,WNW,285,0.0,0.0,54,0.00,,---,0.00,VWS V14.00,2013-02-04 23:02:00,
2013-02-04 18:07:00,27.8,13.3,29.99,WNW,285,0.0,0.0,54,0.00,,---,0.00,VWS V14.00,2013-02-04 23:07:00,
2013-02-04 18:12:00,27.8,13.8,29.99,WNW,285,0.0,0.0,55,0.00,,---,0.00,VWS V14.00,2013-02-04 23:12:00,
2013-02-04 18:17:00,27.6,13.6,29.99,WNW,285,0.0,0.0,55,0.00,,---,0.00,VWS V14.00,2013-02-04 23:17:00,
2013-02-04 18:22:00,27.6,14.0,30.00,WNW,285,0.0,0.0,56,0.00,,---,0.00,VWS V14.00,2013-02-04 23:22:00,
2013-02-04 18:27:00,27.5,13.9,30.00,WNW,285,0.0,1.0,56,0.00,,---,0.00,VWS V14.00,2013-02-04 23:27:00,
2013-02-04 18:33:00,27.5,13.9,30.00,WNW,285,0.0,1.0,56,0.00,,---,0.00,VWS V14.00,2013-02-04 23:33:00,
2013-02-04 18:38:00,27.4,13.8,30.00,WNW,285,1.0,2.0,56,0.00,,---,0.00,VWS V14.00,2013-02-04 23:38:00,
2013-02-04 18:43:00,27.4,13.8,30.00,WNW,285,0.0,0.0,56,0.00,,---,0.00,VWS V14.00,2013-02-04 23:43:00,
2013-02-04 18:48:00,27.4,13.8,30.00,WNW,285,1.0,1.0,56,0.00,,---,0.00,VWS V14.00,2013-02-04 23:48:00,
2013-02-04 18:53:00,27.3,13.7,30.00,WNW,285,0.0,0.0,56,0.00,,---,0.00,VWS V14.00,2013-02-04 23:53:00,
2013-02-04 18:58:00,27.3,14.1,30.00,WNW,285,0.0,0.0,57,0.00,,---,0.00,VWS V14.00,2013-02-04 23:58:00,
2013-02-04 19:03:00,27.2,14.0,30.00,WNW,285,0.0,0.0,57,0.00,,---,0.00,VWS V14.00,2013-02-05 00:03:00,
2013-02-04 19:08:00,27.1,14.3,30.00,WNW,285,0.0,0.0,58,0.00,,---,0.00,VWS V14.00,2013-02-05 00:08:00,
2013-02-04 19:13:00,27.0,14.2,30.00,WNW,285,0.0,0.0,58,0.00,,---,0.00,VWS V14.00,2013-02-05 00:13:00,
2013-02-04 19:18:00,26.9,14.1,30.00,WNW,285,0.0,0.0,58,0.00,,---,0.00,VWS V14.00,2013-02-05 00:18:00,
2013-02-04 19:23:00,26.9,14.5,30.00,WNW,285,0.0,0.0,59,0.00,,---,0.00,VWS V14.00,2013-02-05 00:23:00,
2013-02-04 19:28:00,26.7,14.3,30.00,WNW,285,0.0,0.0,59,0.00,,---,0.00,VWS V14.00,2013-02-05 00:28:00,
2013-02-04 19:33:00,26.6,14.6,30.00,WNW,285,0.0,0.0,60,0.00,,---,0.00,VWS V14.00,2013-02-05 00:33:00,
2013-02-04 19:38:00,26.5,14.5,30.00,WNW,285,0.0,0.0,60,0.00,,---,0.00,VWS V14.00,2013-02-05 00:38:00,
2013-02-04 19:44:00,26.4,14.8,30.00,WNW,285,0.0,0.0,61,0.00,,---,0.00,VWS V14.00,2013-02-05 00:44:00,
2013-02-04 19:49:00,26.3,15.1,30.00,WNW,285,0.0,0.0,62,0.00,,---,0.00,VWS V14.00,2013-02-05 00:49:00,
2013-02-04 19:54:00,26.1,14.9,30.00,WNW,285,0.0,0.0,62,0.00,,---,0.00,VWS V14.00,2013-02-05 00:54:00,
2013-02-04 19:59:00,26.0,14.8,30.00,WNW,285,0.0,0.0,62,0.00,,---,0.00,VWS V14.00,2013-02-05 00:59:00,
2013-02-04 20:04:00,25.8,14.6,30.00,WNW,285,0.0,0.0,62,0.00,,---,0.00,VWS V14.00,2013-02-05 01:04:00,
2013-02-04 20:09:00,25.7,14.9,30.00,WNW,285,0.0,0.0,63,0.00,,---,0.00,VWS V14.00,2013-02-05 01:09:00,
2013-02-04 20:14:00,25.6,15.1,30.00,WNW,285,0.0,0.0,64,0.00,,---,0.00,VWS V14.00,2013-02-05 01:14:00,
2013-02-04 20:19:00,25.3,14.8,30.00,WNW,285,1.0,1.0,64,0.00,,---,0.00,VWS V14.00,2013-02-05 01:19:00,
2013-02-04 20:24:00,25.2,15.1,30.00,WNW,285,0.0,0.0,65,0.00,,---,0.00,VWS V14.00,2013-02-05 01:24:00,
2013-02-04 20:29:00,25.0,14.6,30.00,WNW,285,0.0,0.0,64,0.00,,---,0.00,VWS V14.00,2013-02-05 01:29:00,
2013-02-04 20:34:00,24.9,14.8,29.99,WNW,285,0.0,0.0,65,0.00,,---,0.00,VWS V14.00,2013-02-05 01:34:00,
2013-02-04 20:39:00,24.9,15.2,30.00,WNW,285,0.0,0.0,66,0.00,,---,0.00,VWS V14.00,2013-02-05 01:39:00,
2013-02-04 20:45:00,25.0,14.9,30.00,WNW,285,0.0,0.0,65,0.00,,---,0.00,VWS V14.00,2013-02-05 01:45:00,
2013-02-04 20:50:00,25.0,14.9,30.00,WNW,285,0.0,0.0,65,0.00,,---,0.00,VWS V14.00,2013-02-05 01:50:00,
2013-02-04 20:55:00,25.0,14.9,30.00,WNW,285,0.0,0.0,65,0.00,,---,0.00,VWS V14.00,2013-02-05 01:55:00,
2013-02-04 21:00:00,25.0,14.9,30.00,WNW,285,0.0,0.0,65,0.00,,---,0.00,VWS V14.00,2013-02-05 02:00:00,
2013-02-04 21:05:00,25.1,15.4,30.00,WNW,285,0.0,0.0,66,0.00,,---,0.00,VWS V14.00,2013-02-05 02:05:00,
2013-02-04 21:10:00,25.1,15.4,30.00,WNW,285,0.0,0.0,66,0.00,,---,0.00,VWS V14.00,2013-02-05 02:10:00,
2013-02-04 21:15:00,25.2,15.4,30.00,WNW,285,0.0,0.0,66,0.00,,---,0.00,VWS V14.00,2013-02-05 02:15:00,
2013-02-04 21:20:00,25.4,15.6,30.00,WNW,285,0.0,0.0,66,0.00,,---,0.00,VWS V14.00,2013-02-05 02:20:00,
2013-02-04 21:25:00,25.5,15.7,30.00,WNW,285,0.0,0.0,66,0.00,,---,0.00,VWS V14.00,2013-02-05 02:25:00,
2013-02-04 21:30:00,25.6,15.8,29.99,WNW,285,0.0,0.0,66,0.00,,---,0.00,VWS V14.00,2013-02-05 02:30:00,
2013-02-04 21:35:00,25.7,15.9,29.99,WNW,285,0.0,0.0,66,0.00,,---,0.00,VWS V14.00,2013-02-05 02:35:00,
2013-02-04 21:40:00,25.8,16.0,29.99,WNW,285,0.0,0.0,66,0.00,,---,0.00,VWS V14.00,2013-02-05 02:40:00,
2013-02-04 21:45:00,25.8,16.4,30.00,WNW,285,0.0,0.0,67,0.00,,---,0.00,VWS V14.00,2013-02-05 02:45:00,
2013-02-04 21:50:00,26.0,16.6,30.00,WNW,285,0.0,0.0,67,0.00,,---,0.00,VWS V14.00,2013-02-05 02:50:00,
2013-02-04 21:56:00,26.0,16.2,30.00,West,259,2.0,2.0,66,0.00,,---,0.00,VWS V14.00,2013-02-05 02:56:00,
2013-02-04 22:01:00,26.1,16.3,30.00,West,259,0.0,0.0,66,0.00,,---,0.00,VWS V14.00,2013-02-05 03:01:00,
2013-02-04 22:06:00,26.2,16.4,29.99,West,259,0.0,0.0,66,0.00,,---,0.00,VWS V14.00,2013-02-05 03:06:00,
2013-02-04 22:11:00,26.3,16.5,29.99,West,259,0.0,1.0,66,0.00,,---,0.00,VWS V14.00,2013-02-05 03:11:00,
2013-02-04 22:16:00,26.3,16.5,29.99,West,259,0.0,0.0,66,0.00,,---,0.00,VWS V14.00,2013-02-05 03:16:00,
2013-02-04 22:21:00,26.4,16.6,30.00,West,259,0.0,0.0,66,0.00,,---,0.00,VWS V14.00,2013-02-05 03:21:00,
2013-02-04 22:26:00,26.4,16.6,29.99,West,259,0.0,0.0,66,0.00,,---,0.00,VWS V14.00,2013-02-05 03:26:00,
2013-02-04 22:31:00,26.5,16.7,29.99,West,259,0.0,0.0,66,0.00,,---,0.00,VWS V14.00,2013-02-05 03:31:00,
2013-02-04 22:36:00,26.5,17.0,29.99,West,259,0.0,0.0,67,0.00,,---,0.00,VWS V14.00,2013-02-05 03:36:00,
2013-02-04 22:41:00,26.6,17.1,29.99,West,259,0.0,0.0,67,0.00,,---,0.00,VWS V14.00,2013-02-05 03:41:00,
2013-02-04 22:47:00,26.6,17.1,29.99,West,259,1.0,1.0,67,0.00,,---,0.00,VWS V14.00,2013-02-05 03:47:00,
2013-02-04 22:52:00,26.7,17.6,30.00,SSW,194,1.0,3.0,68,0.00,,---,0.00,VWS V14.00,2013-02-05 03:52:00,
2013-02-04 22:57:00,26.9,18.8,30.00,SSW,194,1.0,2.0,71,0.00,,---,0.00,VWS V14.00,2013-02-05 03:57:00,
2013-02-04 23:02:00,26.9,19.4,30.00,SW,214,0.0,1.0,73,0.00,,---,0.00,VWS V14.00,2013-02-05 04:02:00,
2013-02-04 23:07:00,26.9,20.0,30.00,SW,224,0.0,0.0,75,0.00,,---,0.00,VWS V14.00,2013-02-05 04:07:00,
2013-02-04 23:12:00,26.9,21.0,29.99,SW,221,1.0,1.0,78,0.00,,---,0.00,VWS V14.00,2013-02-05 04:12:00,
2013-02-04 23:17:00,26.9,21.3,29.99,SW,221,0.0,0.0,79,0.00,,---,0.00,VWS V14.00,2013-02-05 04:17:00,
2013-02-04 23:22:00,26.8,21.8,29.98,SW,221,0.0,0.0,81,0.00,,---,0.00,VWS V14.00,2013-02-05 04:22:00,
2013-02-04 23:27:00,26.8,22.0,29.98,SW,221,0.0,0.0,82,0.00,,---,0.00,VWS V14.00,2013-02-05 04:27:00,
2013-02-04 23:32:00,26.8,22.3,29.98,SW,221,0.0,0.0,83,0.00,,---,0.00,VWS V14.00,2013-02-05 04:32:00,
2013-02-04 23:37:00,26.7,22.5,29.98,SW,221,0.0,0.0,84,0.00,,---,0.00,VWS V14.00,2013-02-05 04:37:00,
2013-02-04 23:42:00,26.7,22.8,29.98,SW,221,0.0,1.0,85,0.00,,---,0.00,VWS V14.00,2013-02-05 04:42:00,
2013-02-04 23:48:00,26.7,23.1,29.98,SSW,203,0.0,0.0,86,0.00,,---,0.00,VWS V14.00,2013-02-05 04:48:00,
2013-02-04 23:53:00,26.6,23.0,29.98,SSW,203,0.0,0.0,86,0.00,,---,0.00,VWS V14.00,2013-02-05 04:53:00,
2013-02-04 23:58:00,26.6,23.3,29.98,SSW,203,0.0,0.0,87,0.00,,---,0.00,VWS V14.00,2013-02-05 04:58:00,